Big Eddie — WDG2850 — position and weather

sailwx.info

Track history (hours):
 
Tides and Currents Weather Stations Pressure Air Temp Water Temp Dewpoint Dewpoint Depression Visibility Wind Speed Wind Dir Waves Ship Positions

Big Eddie

Owner: Crosby Marine Transportaion LLC, Golden Meadow, LA. More information available from US FCC via Universal Licensing System and Coast Guard Vessel Documentation Center.

Last reported at 2017-Nov-17 19:13 UTC. Time now 2017-Nov-21 23:15 UTC.
Position N 29°33' W 094°54'.

Length 22 m; draft 4 m.

Type: Towing. MMSI: 367519920.

Date/timePositionNaut miles runAvg speedWind from/ knotsBaromVisibWave heightAir tempDewpointWater temp
2017-Nov-17 19:13N 29°33' W 094°54'1 6.3
2017-Nov-17 19:00N 29°34' W 094°55'3 6.4
2017-Nov-17 18:30N 29°36' W 094°57'3 6.7
2017-Nov-17 18:00N 29°40' W 094°58'3 6.7
2017-Nov-17 17:30N 29°42' W 095°01'3 5.1
2017-Nov-17 17:00N 29°44' W 095°03'2 0.3
2017-Nov-17 12:18N 29°45' W 095°04'1 3.0
2017-Nov-17 11:59N 29°44' W 095°04'2 3.2
2017-Nov-17 11:30N 29°44' W 095°02'1 1.7
2017-Nov-17 10:53N 29°43' W 095°01'1 1.3
2017-Nov-17 10:27N 29°42' W 095°01'1 3.1
2017-Nov-17 10:00N 29°42' W 094°60'2 3.7
2017-Nov-17 09:30N 29°40' W 094°59'2 3.4
2017-Nov-17 09:00N 29°39' W 094°58'2 3.4
2017-Nov-17 08:30N 29°37' W 094°57'2 3.9
2017-Nov-17 08:00N 29°35' W 094°56'1 2.7
2017-Nov-17 07:30N 29°34' W 094°55'1 2.9
2017-Nov-17 07:00N 29°33' W 094°54'1 2.9
2017-Nov-17 06:30N 29°32' W 094°54'2 3.3
2017-Nov-17 05:47N 29°30' W 094°52'51 3.1
2017-Nov-16 13:07N 29°50' W 093°58'25 1.6
2017-Nov-15 21:19N 30°04' W 093°33'1 4.1
2017-Nov-15 21:00N 30°04' W 093°32'2 4.0
2017-Nov-15 20:30N 30°04' W 093°30'2 4.1
2017-Nov-15 20:00N 30°04' W 093°27'2 4.1
2017-Nov-15 19:30N 30°04' W 093°25'2 3.9
2017-Nov-15 19:00N 30°04' W 093°23'2 3.3
2017-Nov-15 18:30N 30°04' W 093°21'2 3.1
2017-Nov-15 18:00N 30°05' W 093°20'1 2.9
2017-Nov-15 17:30N 30°06' W 093°18'1 1.9
2017-Nov-15 17:00N 30°05' W 093°17'1 1.6
2017-Nov-15 16:30N 30°05' W 093°17'0 0.3
2017-Nov-15 16:00N 30°05' W 093°17'0 0.4
2017-Nov-15 15:30N 30°04' W 093°16'2 3.4
2017-Nov-15 15:00N 30°03' W 093°16'2 3.3
2017-Nov-15 14:30N 30°02' W 093°14'2 3.1
2017-Nov-15 14:00N 30°00' W 093°14'1 2.5
2017-Nov-15 13:30N 29°59' W 093°13'15 3.0
2017-Nov-15 08:31N 29°56' W 092°56'0 3.1
2017-Nov-15 08:25N 29°56' W 092°55'29 3.2
2017-Nov-14 23:22N 29°52' W 092°23'2 3.5
2017-Nov-14 22:55N 29°51' W 092°22'2 3.5
2017-Nov-14 22:28N 29°51' W 092°20'2 3.5
2017-Nov-14 22:00N 29°50' W 092°18'1 2.5
2017-Nov-14 21:30N 29°49' W 092°17'2 3.3
2017-Nov-14 21:00N 29°48' W 092°16'2 3.9
2017-Nov-14 20:30N 29°48' W 092°14'1 2.3
2017-Nov-14 20:00N 29°47' W 092°12'1 2.1
2017-Nov-14 19:30N 29°47' W 092°11'2 4.0
2017-Nov-14 19:00N 29°47' W 092°09'2 4.5
2017-Nov-14 18:30N 29°48' W 092°06'2 4.4
2017-Nov-14 18:00N 29°48' W 092°04'2 3.7
2017-Nov-14 17:30N 29°49' W 092°02'2 3.7
2017-Nov-14 17:00N 29°50' W 092°00'2 3.6
2017-Nov-14 16:30N 29°50' W 091°58'2 3.6
2017-Nov-14 15:59N 29°51' W 091°56'60 3.3
2017-Nov-13 21:55N 29°32' W 090°51'  
Track history (hours):
 
Tides and Currents Weather Stations Pressure Air Temp Water Temp Dewpoint Dewpoint Depression Visibility Wind Speed Wind Dir Waves Ship Positions

Big Eddie

Owner: Crosby Marine Transportaion LLC, Golden Meadow, LA. More information available from US FCC via Universal Licensing System and Coast Guard Vessel Documentation Center.

Last reported at 2017-Nov-17 19:13 UTC. Time now 2017-Nov-21 23:15 UTC.
Position N 29°33' W 094°54'.

Length 22 m; draft 4 m.

Type: Towing. MMSI: 367519920.

Date/timePositionNaut miles runAvg speedWind from/ knotsBaromVisibWave heightAir tempDewpointWater temp
2017-Nov-17 19:13N 29°33' W 094°54'1 6.3
2017-Nov-17 19:00N 29°34' W 094°55'3 6.4
2017-Nov-17 18:30N 29°36' W 094°57'3 6.7
2017-Nov-17 18:00N 29°40' W 094°58'3 6.7
2017-Nov-17 17:30N 29°42' W 095°01'3 5.1
2017-Nov-17 17:00N 29°44' W 095°03'2 0.3
2017-Nov-17 12:18N 29°45' W 095°04'1 3.0
2017-Nov-17 11:59N 29°44' W 095°04'2 3.2
2017-Nov-17 11:30N 29°44' W 095°02'1 1.7
2017-Nov-17 10:53N 29°43' W 095°01'1 1.3
2017-Nov-17 10:27N 29°42' W 095°01'1 3.1
2017-Nov-17 10:00N 29°42' W 094°60'2 3.7
2017-Nov-17 09:30N 29°40' W 094°59'2 3.4
2017-Nov-17 09:00N 29°39' W 094°58'2 3.4
2017-Nov-17 08:30N 29°37' W 094°57'2 3.9
2017-Nov-17 08:00N 29°35' W 094°56'1 2.7
2017-Nov-17 07:30N 29°34' W 094°55'1 2.9
2017-Nov-17 07:00N 29°33' W 094°54'1 2.9
2017-Nov-17 06:30N 29°32' W 094°54'2 3.3
2017-Nov-17 05:47N 29°30' W 094°52'51 3.1
2017-Nov-16 13:07N 29°50' W 093°58'25 1.6
2017-Nov-15 21:19N 30°04' W 093°33'1 4.1
2017-Nov-15 21:00N 30°04' W 093°32'2 4.0
2017-Nov-15 20:30N 30°04' W 093°30'2 4.1
2017-Nov-15 20:00N 30°04' W 093°27'2 4.1
2017-Nov-15 19:30N 30°04' W 093°25'2 3.9
2017-Nov-15 19:00N 30°04' W 093°23'2 3.3
2017-Nov-15 18:30N 30°04' W 093°21'2 3.1
2017-Nov-15 18:00N 30°05' W 093°20'1 2.9
2017-Nov-15 17:30N 30°06' W 093°18'1 1.9
2017-Nov-15 17:00N 30°05' W 093°17'1 1.6
2017-Nov-15 16:30N 30°05' W 093°17'0 0.3
2017-Nov-15 16:00N 30°05' W 093°17'0 0.4
2017-Nov-15 15:30N 30°04' W 093°16'2 3.4
2017-Nov-15 15:00N 30°03' W 093°16'2 3.3
2017-Nov-15 14:30N 30°02' W 093°14'2 3.1
2017-Nov-15 14:00N 30°00' W 093°14'1 2.5
2017-Nov-15 13:30N 29°59' W 093°13'15 3.0
2017-Nov-15 08:31N 29°56' W 092°56'0 3.1
2017-Nov-15 08:25N 29°56' W 092°55'29 3.2
2017-Nov-14 23:22N 29°52' W 092°23'2 3.5
2017-Nov-14 22:55N 29°51' W 092°22'2 3.5
2017-Nov-14 22:28N 29°51' W 092°20'2 3.5
2017-Nov-14 22:00N 29°50' W 092°18'1 2.5
2017-Nov-14 21:30N 29°49' W 092°17'2 3.3
2017-Nov-14 21:00N 29°48' W 092°16'2 3.9
2017-Nov-14 20:30N 29°48' W 092°14'1 2.3
2017-Nov-14 20:00N 29°47' W 092°12'1 2.1
2017-Nov-14 19:30N 29°47' W 092°11'2 4.0
2017-Nov-14 19:00N 29°47' W 092°09'2 4.5
2017-Nov-14 18:30N 29°48' W 092°06'2 4.4
2017-Nov-14 18:00N 29°48' W 092°04'2 3.7
2017-Nov-14 17:30N 29°49' W 092°02'2 3.7
2017-Nov-14 17:00N 29°50' W 092°00'2 3.6
2017-Nov-14 16:30N 29°50' W 091°58'2 3.6
2017-Nov-14 15:59N 29°51' W 091°56'60 3.3
2017-Nov-13 21:55N 29°32' W 090°51'  

Dump ship's entire track history